Time;durP1;ratioP1;P1;durP2;ratioP2;P2;SDS_P1;SDS_P2;PMS_P1;PMS_P2;Temp;Humidity;BMP_temperature;BMP_pressure;BME280_temperature;BME280_humidity;BME280_pressure;Samples;Min_cycle;Max_cycle;Signal;HPM_P1;HPM_P2
2022/01/22 00:01:59;;;;;;;27.63;6.00;;;6.00;99.90;;;;;;4995792;28;20017;-86
2022/01/22 00:04:24;;;;;;;25.40;5.63;;;6.00;99.90;;;;;;5013978;28;20032;-85
2022/01/22 00:06:55;;;;;;;19.30;3.25;;;6.00;99.90;;;;;;4996116;28;20022;-85
2022/01/22 00:09:25;;;;;;;19.63;3.67;;;6.00;99.90;;;;;;5013579;28;20112;-84
2022/01/22 00:11:55;;;;;;;21.13;3.28;;;6.00;99.90;;;;;;5013625;28;20092;-85
2022/01/22 00:14:23;;;;;;;25.48;4.07;;;6.00;99.90;;;;;;5013928;28;20029;-85
2022/01/22 00:16:58;;;;;;;18.88;3.30;;;6.00;99.90;;;;;;4979873;28;20026;-85
2022/01/22 00:19:24;;;;;;;23.17;3.88;;;6.00;99.90;;;;;;4996221;28;20429;-84
2022/01/22 00:21:51;;;;;;;14.68;3.28;;;6.00;99.90;;;;;;5014082;28;20026;-85
2022/01/22 00:24:17;;;;;;;22.02;3.67;;;6.00;99.90;;;;;;4995770;28;20455;-85
2022/01/22 00:26:45;;;;;;;18.77;3.25;;;6.00;99.90;;;;;;4996014;28;20027;-85
2022/01/22 00:29:13;;;;;;;15.07;3.10;;;6.00;99.90;;;;;;4995686;28;20026;-86
2022/01/22 00:31:41;;;;;;;21.92;3.80;;;6.00;99.90;;;;;;4995503;28;20030;-86
2022/01/22 00:34:08;;;;;;;13.52;2.95;;;6.10;99.90;;;;;;4995414;28;20032;-86
2022/01/22 00:36:35;;;;;;;18.15;3.40;;;6.10;99.90;;;;;;4995714;28;20357;-85
2022/01/22 00:39:00;;;;;;;20.45;4.50;;;6.10;99.90;;;;;;4979570;28;20036;-86
2022/01/22 00:41:27;;;;;;;18.70;3.47;;;6.10;99.90;;;;;;4979667;28;20120;-84
2022/01/22 00:43:55;;;;;;;17.88;3.33;;;6.00;99.90;;;;;;4979076;28;20025;-85
2022/01/22 00:46:21;;;;;;;16.35;3.33;;;6.10;99.90;;;;;;5013723;28;20026;-84
2022/01/22 00:48:50;;;;;;;22.25;4.15;;;6.10;99.90;;;;;;4995627;28;20072;-84
2022/01/22 00:51:16;;;;;;;14.50;3.70;;;6.10;99.90;;;;;;4983367;28;20034;-84
2022/01/22 00:53:42;;;;;;;23.50;3.58;;;6.10;99.90;;;;;;4983454;28;20088;-84
2022/01/22 00:56:07;;;;;;;20.85;3.60;;;6.10;99.90;;;;;;4999906;28;20040;-84
2022/01/22 00:58:33;;;;;;;24.23;4.03;;;6.10;99.90;;;;;;4999826;28;20026;-84
2022/01/22 01:00:59;;;;;;;21.30;3.80;;;6.10;99.90;;;;;;5000731;28;20030;-85
2022/01/22 01:03:25;;;;;;;16.83;3.25;;;6.10;99.90;;;;;;5001952;28;20389;-84
2022/01/22 01:05:51;;;;;;;24.77;4.10;;;6.10;99.90;;;;;;4985169;28;20034;-84
2022/01/22 01:08:16;;;;;;;28.38;3.90;;;6.10;99.90;;;;;;5000545;28;20030;-85
2022/01/22 01:10:42;;;;;;;25.23;4.15;;;6.10;99.90;;;;;;5000644;28;20030;-84
2022/01/22 01:13:07;;;;;;;17.17;3.00;;;6.10;99.90;;;;;;4999523;28;20053;-84
2022/01/22 01:34:41;;;;;;;16.90;3.08;;;6.20;99.90;;;;;;5002171;28;20065;-85
2022/01/22 01:37:08;;;;;;;18.60;3.47;;;6.20;99.90;;;;;;4982752;28;20220;-85
2022/01/22 01:39:36;;;;;;;19.45;3.65;;;6.10;99.90;;;;;;4983347;28;20037;-85
2022/01/22 01:42:06;;;;;;;17.33;3.30;;;6.20;99.90;;;;;;4982707;28;20458;-85
2022/01/22 01:44:32;;;;;;;19.90;3.55;;;6.20;99.90;;;;;;4983703;28;20029;-85
2022/01/22 01:47:01;;;;;;;18.48;3.50;;;6.20;99.90;;;;;;5016378;28;20442;-85
2022/01/22 01:49:28;;;;;;;20.27;3.22;;;6.20;99.90;;;;;;5015710;28;20050;-84
2022/01/22 01:51:57;;;;;;;17.92;3.38;;;6.20;99.90;;;;;;4998496;28;20030;-84
2022/01/22 01:59:32;;;;;;;18.48;3.10;;;6.20;99.90;;;;;;5001652;28;20092;-84
2022/01/22 02:01:58;;;;;;;17.50;3.35;;;6.20;99.90;;;;;;4997234;28;20057;-85
2022/01/22 02:04:24;;;;;;;20.60;3.20;;;6.20;99.90;;;;;;4998723;28;20044;-85
2022/01/22 02:06:50;;;;;;;21.83;3.58;;;6.20;99.90;;;;;;4981996;28;20065;-86
2022/01/22 02:09:16;;;;;;;15.32;2.95;;;6.20;99.90;;;;;;4998064;28;20056;-85
2022/01/22 02:11:43;;;;;;;20.23;3.20;;;6.20;99.90;;;;;;4981469;28;20478;-84
2022/01/22 02:25:10;;;;;;;13.10;2.60;;;6.20;99.90;;;;;;5015899;28;20041;-85
2022/01/22 02:27:36;;;;;;;15.60;3.10;;;6.30;99.90;;;;;;4998149;28;20084;-85
2022/01/22 02:30:03;;;;;;;14.98;3.78;;;6.20;99.90;;;;;;4997856;28;20034;-85
2022/01/22 02:35:22;;;;;;;15.68;2.70;;;6.30;99.90;;;;;;5000932;28;20441;-85
2022/01/22 02:38:01;;;;;;;12.18;2.17;;;6.30;99.90;;;;;;4997495;28;20026;-86
2022/01/22 02:40:31;;;;;;;10.82;2.70;;;6.30;99.90;;;;;;5015254;28;20030;-85
2022/01/22 02:43:00;;;;;;;10.95;2.55;;;6.30;99.90;;;;;;5015026;28;20516;-85
2022/01/22 02:45:32;;;;;;;11.77;2.55;;;6.40;99.90;;;;;;4997348;28;20056;-85
2022/01/22 02:48:00;;;;;;;13.88;2.40;;;6.30;99.90;;;;;;4997471;28;20165;-86
2022/01/22 02:50:26;;;;;;;17.98;2.47;;;6.40;99.90;;;;;;4980664;28;20050;-86
2022/01/22 02:52:52;;;;;;;10.90;2.55;;;6.40;99.90;;;;;;5014535;28;20389;-84
2022/01/22 02:55:18;;;;;;;13.55;2.55;;;6.40;99.90;;;;;;4997653;28;20030;-84
2022/01/22 02:57:49;;;;;;;14.73;2.33;;;6.40;99.90;;;;;;4997938;28;20014;-84
2022/01/22 03:00:24;;;;;;;11.53;2.20;;;6.30;99.90;;;;;;5014536;28;20033;-84
2022/01/22 03:02:51;;;;;;;8.77;1.92;;;6.40;99.90;;;;;;4997249;28;20367;-86
2022/01/22 03:05:17;;;;;;;12.35;1.98;;;6.30;99.90;;;;;;5015307;28;20033;-85
2022/01/22 03:07:52;;;;;;;15.23;2.25;;;6.40;99.90;;;;;;4997059;28;20018;-84
2022/01/22 03:10:24;;;;;;;9.20;1.90;;;6.40;99.90;;;;;;4997028;28;20470;-84
2022/01/22 03:28:27;;;;;;;10.07;2.63;;;6.30;99.90;;;;;;5014952;28;20061;-85
2022/01/22 03:30:56;;;;;;;13.35;2.25;;;6.30;99.90;;;;;;4981653;28;20038;-85
2022/01/22 03:33:31;;;;;;;9.18;1.88;;;6.40;99.90;;;;;;5014056;28;20072;-85
2022/01/22 03:35:59;;;;;;;10.05;2.17;;;6.30;99.90;;;;;;4997319;28;20085;-87
2022/01/22 03:38:27;;;;;;;8.63;1.67;;;6.40;99.90;;;;;;4996359;28;20454;-85
2022/01/22 03:40:56;;;;;;;8.77;2.28;;;6.40;99.90;;;;;;4997090;28;20031;-86
2022/01/22 03:43:22;;;;;;;11.93;2.25;;;6.40;99.90;;;;;;4996268;28;20053;-87
2022/01/22 03:45:49;;;;;;;8.73;2.10;;;6.40;99.90;;;;;;4997030;28;20108;-86
2022/01/22 03:48:17;;;;;;;10.05;2.40;;;6.40;99.90;;;;;;4996378;28;20034;-85
2022/01/22 03:50:43;;;;;;;12.32;2.45;;;6.40;99.90;;;;;;4996056;28;20132;-85
2022/01/22 03:53:08;;;;;;;9.00;2.08;;;6.40;99.90;;;;;;4996727;28;20403;-84
2022/01/22 03:55:54;;;;;;;10.55;2.53;;;6.30;99.90;;;;;;4980043;28;20116;-84
2022/01/22 03:58:25;;;;;;;10.98;2.45;;;6.30;99.90;;;;;;4999467;28;20030;-84
2022/01/22 04:01:00;;;;;;;9.13;2.05;;;6.30;99.90;;;;;;4996337;28;20429;-86
2022/01/22 04:03:31;;;;;;;9.15;2.00;;;6.30;99.90;;;;;;4995936;28;20057;-85
2022/01/22 04:08:59;;;;;;;6.43;1.63;;;6.20;99.90;;;;;;4980238;28;20442;-86
2022/01/22 04:11:37;;;;;;;;;;;;;;;;;;;;;
2022/01/22 04:14:12;;;;;;;10.52;2.00;;;6.20;99.90;;;;;;4997625;28;20026;-86
2022/01/22 04:16:56;;;;;;;;;;;;;;;;;;;;;
2022/01/22 04:24:52;;;;;;;10.90;2.00;;;6.20;99.90;;;;;;5014658;28;20045;-86
2022/01/22 04:27:23;;;;;;;7.75;1.80;;;6.20;99.90;;;;;;5005697;28;20030;-85
2022/01/22 04:29:54;;;;;;;8.23;2.10;;;6.20;99.90;;;;;;4996055;28;20046;-85
2022/01/22 04:32:20;;;;;;;10.50;2.30;;;6.20;99.90;;;;;;5014121;28;20034;-85
2022/01/22 04:34:46;;;;;;;7.95;1.70;;;6.20;99.90;;;;;;4995705;28;20026;-87
2022/01/22 04:37:13;;;;;;;9.27;1.80;;;6.20;99.90;;;;;;4995830;28;20017;-86
2022/01/22 04:39:39;;;;;;;9.73;1.90;;;6.20;99.90;;;;;;5013451;28;20022;-85
2022/01/22 04:42:08;;;;;;;7.50;1.48;;;6.20;99.90;;;;;;4979937;28;20390;-87
2022/01/22 04:44:40;;;;;;;7.72;1.67;;;6.20;99.90;;;;;;4995814;28;20509;-85
2022/01/22 04:55:02;;;;;;;15.75;2.42;;;6.20;99.90;;;;;;4997070;28;20088;-85
2022/01/22 04:57:32;;;;;;;;;;;6.20;99.90;;;;;;5014269;28;20034;-85
2022/01/22 04:59:58;;;;;;;8.35;2.00;;;6.30;99.90;;;;;;4995321;28;19902;-85
2022/01/22 05:02:24;;;;;;;8.63;1.92;;;6.30;99.90;;;;;;5012836;28;20429;-84
2022/01/22 05:04:50;;;;;;;9.60;2.50;;;6.20;99.90;;;;;;4979222;28;20030;-85
2022/01/22 05:07:16;;;;;;;13.18;1.98;;;6.20;99.90;;;;;;4995404;28;20544;-84
2022/01/22 05:09:44;;;;;;;10.07;1.90;;;6.20;99.90;;;;;;4979107;28;20034;-84
2022/01/22 05:12:10;;;;;;;9.45;1.70;;;6.20;99.90;;;;;;4979617;28;20030;-84
2022/01/22 05:14:35;;;;;;;11.38;1.85;;;6.20;99.90;;;;;;4995528;28;20037;-85
2022/01/22 05:17:04;;;;;;;6.63;1.67;;;6.20;99.90;;;;;;4979560;28;20112;-85
2022/01/22 05:22:06;;;;;;;7.63;1.63;;;6.20;99.90;;;;;;5013000;28;20041;-85
2022/01/22 05:24:34;;;;;;;6.72;1.48;;;6.20;99.90;;;;;;4980207;28;20121;-85
2022/01/22 05:37:43;;;;;;;8.55;1.88;;;6.20;99.90;;;;;;5015796;28;20048;-84
2022/01/22 05:40:09;;;;;;;14.43;2.28;;;6.20;99.90;;;;;;4998693;28;20034;-83
2022/01/22 05:42:36;;;;;;;7.97;1.75;;;6.30;99.90;;;;;;4998132;28;20072;-85
2022/01/22 05:45:04;;;;;;;8.85;2.30;;;6.20;99.90;;;;;;5016202;28;20026;-85
2022/01/22 05:47:30;;;;;;;7.60;1.85;;;6.20;99.90;;;;;;5016609;28;20096;-84
2022/01/22 05:49:55;;;;;;;7.88;1.60;;;6.20;99.90;;;;;;4997944;28;20145;-85
2022/01/22 05:52:33;;;;;;;7.88;2.25;;;6.20;99.90;;;;;;4998565;28;20268;-84
2022/01/22 06:00:30;;;;;;;9.27;2.05;;;6.20;99.90;;;;;;5001192;28;20050;-85
2022/01/22 06:02:56;;;;;;;6.43;1.73;;;6.20;99.90;;;;;;4998428;28;20083;-84
2022/01/22 06:05:22;;;;;;;6.70;2.10;;;6.20;99.90;;;;;;4999193;28;20124;-85
2022/01/22 06:07:47;;;;;;;8.80;2.20;;;6.20;99.90;;;;;;5015529;28;20540;-85
2022/01/22 06:10:17;;;;;;;10.23;2.38;;;6.20;99.90;;;;;;4981918;28;20042;-85
2022/01/22 06:12:58;;;;;;;10.13;2.20;;;6.20;99.90;;;;;;4982512;28;20061;-87
2022/01/22 06:15:24;;;;;;;7.75;2.00;;;6.30;99.90;;;;;;4998074;28;20018;-84
2022/01/22 06:17:50;;;;;;;9.77;2.20;;;6.20;99.90;;;;;;4998522;28;20022;-85
2022/01/22 06:20:16;;;;;;;9.68;2.58;;;6.20;99.90;;;;;;4982341;28;20048;-85
2022/01/22 06:22:49;;;;;;;10.57;2.70;;;6.20;99.90;;;;;;4982621;28;20033;-85
2022/01/22 06:25:15;;;;;;;10.88;2.13;;;6.20;99.90;;;;;;4981651;28;20037;-86
2022/01/22 06:27:43;;;;;;;10.82;3.33;;;6.20;99.90;;;;;;4998240;28;20030;-85
2022/01/22 06:30:12;;;;;;;13.00;2.78;;;6.20;99.90;;;;;;4997820;28;20022;-85
2022/01/22 06:32:38;;;;;;;14.32;3.10;;;6.20;99.90;;;;;;5015637;28;20018;-85
2022/01/22 06:35:06;;;;;;;11.48;3.08;;;6.20;99.90;;;;;;4986716;28;20030;-86
2022/01/22 06:37:35;;;;;;;13.02;3.42;;;6.20;99.90;;;;;;5002542;28;20478;-85
2022/01/22 06:42:33;;;;;;;13.98;3.30;;;6.20;99.90;;;;;;5015196;28;20125;-85
2022/01/22 06:45:12;;;;;;;11.05;3.03;;;6.20;99.90;;;;;;4997502;28;20058;-85
2022/01/22 06:47:40;;;;;;;9.18;2.80;;;6.20;99.90;;;;;;4998007;28;20117;-85
2022/01/22 06:50:09;;;;;;;7.95;2.65;;;6.20;99.90;;;;;;5014955;28;20136;-85
2022/01/22 06:52:45;;;;;;;9.70;2.50;;;6.20;99.90;;;;;;4997329;28;20089;-85
2022/01/22 06:55:14;;;;;;;6.85;1.98;;;6.20;99.90;;;;;;5014732;28;20033;-84
2022/01/22 06:57:42;;;;;;;12.38;2.30;;;6.10;99.90;;;;;;4997746;28;20545;-84
2022/01/22 07:00:11;;;;;;;9.98;2.17;;;6.10;99.90;;;;;;4997131;28;20030;-85
2022/01/22 07:02:36;;;;;;;8.52;1.92;;;6.10;99.90;;;;;;4980756;28;20096;-85
2022/01/22 07:05:03;;;;;;;8.38;2.25;;;6.10;99.90;;;;;;4981124;28;20026;-86
2022/01/22 07:07:28;;;;;;;8.55;1.90;;;6.10;99.90;;;;;;4996620;28;20030;-85
2022/01/22 07:09:54;;;;;;;7.60;2.10;;;6.10;99.90;;;;;;4996491;28;20045;-86
2022/01/22 07:12:20;;;;;;;8.25;2.10;;;6.10;99.90;;;;;;4979965;28;20398;-85
2022/01/22 07:14:49;;;;;;;8.23;2.05;;;6.10;99.90;;;;;;4996361;28;20072;-85
2022/01/22 07:17:17;;;;;;;9.63;2.58;;;6.10;99.90;;;;;;4997437;28;20029;-85
2022/01/22 07:19:43;;;;;;;7.57;1.98;;;6.20;99.90;;;;;;5014307;28;20500;-86
2022/01/22 07:22:31;;;;;;;7.85;1.95;;;6.10;99.90;;;;;;5014353;28;20056;-87
2022/01/22 07:25:04;;;;;;;5.75;1.55;;;6.10;99.90;;;;;;5014118;28;20030;-87
2022/01/22 07:27:30;;;;;;;8.85;2.17;;;6.10;99.90;;;;;;5014294;28;20056;-86
2022/01/22 07:29:55;;;;;;;9.00;2.08;;;6.10;99.90;;;;;;4996411;28;20026;-87
2022/01/22 07:32:32;;;;;;;8.95;2.40;;;6.10;99.90;;;;;;4996894;28;20022;-88
2022/01/22 07:35:06;;;;;;;14.45;6.88;;;6.10;99.90;;;;;;4997732;28;20088;-85
2022/01/22 07:37:32;;;;;;;11.95;3.83;;;6.10;99.90;;;;;;4996660;28;20034;-86
2022/01/22 07:39:58;;;;;;;15.77;3.05;;;6.10;99.90;;;;;;4996374;28;20059;-87
2022/01/22 07:42:24;;;;;;;8.82;1.98;;;6.10;99.90;;;;;;4980425;28;20033;-83
2022/01/22 07:44:49;;;;;;;8.00;1.70;;;6.10;99.90;;;;;;4996451;28;20109;-85
2022/01/22 07:47:16;;;;;;;7.43;1.80;;;6.10;99.90;;;;;;4996511;28;20030;-82
2022/01/22 07:49:42;;;;;;;8.43;1.80;;;6.10;99.90;;;;;;4996054;28;20046;-83
2022/01/22 07:52:08;;;;;;;8.30;1.73;;;6.10;99.90;;;;;;4996319;28;20043;-84
2022/01/22 07:54:34;;;;;;;6.78;2.20;;;6.10;99.90;;;;;;4996657;28;20497;-81
2022/01/22 07:57:02;;;;;;;8.93;1.90;;;6.10;99.90;;;;;;5013774;28;20148;-84
2022/01/22 07:59:29;;;;;;;7.63;1.85;;;6.10;99.90;;;;;;4995588;28;20462;-83
2022/01/22 08:01:55;;;;;;;6.53;1.70;;;6.10;99.90;;;;;;4982860;28;20430;-83
2022/01/22 08:04:24;;;;;;;8.93;2.10;;;6.00;99.90;;;;;;4982726;28;20120;-82
2022/01/22 08:06:50;;;;;;;8.40;1.63;;;6.00;99.90;;;;;;4999234;28;20026;-84
2022/01/22 08:09:16;;;;;;;8.25;1.70;;;6.00;99.90;;;;;;4981871;28;20212;-84
2022/01/22 08:11:44;;;;;;;13.20;5.30;;;6.10;99.90;;;;;;4980611;28;20140;-84
2022/01/22 08:14:10;;;;;;;9.65;3.70;;;6.10;99.90;;;;;;4980710;28;20026;-84
2022/01/22 08:19:56;;;;;;;6.35;1.70;;;6.00;99.90;;;;;;5004342;28;20030;-84
2022/01/22 08:22:22;;;;;;;8.10;2.33;;;6.00;99.90;;;;;;4995375;28;20030;-85
2022/01/22 08:24:52;;;;;;;6.70;1.70;;;6.00;99.90;;;;;;4996069;28;20028;-86
2022/01/22 08:27:40;;;;;;;9.43;2.00;;;6.00;99.90;;;;;;4995277;28;20014;-85
2022/01/22 08:30:08;;;;;;;20.67;9.50;;;6.10;99.90;;;;;;4995566;28;20068;-85
2022/01/22 08:32:57;;;;;;;9.93;2.10;;;6.10;99.90;;;;;;4979472;28;20026;-85
2022/01/22 08:38:08;;;;;;;10.70;2.15;;;6.10;99.90;;;;;;5013636;28;20032;-85
2022/01/22 08:40:37;;;;;;;9.88;2.00;;;6.10;99.90;;;;;;4996346;28;20034;-85
2022/01/22 08:43:05;;;;;;;10.57;2.40;;;6.10;99.90;;;;;;4986809;28;20018;-87
2022/01/22 08:45:38;;;;;;;12.38;2.70;;;6.10;99.90;;;;;;5005760;28;20056;-87
2022/01/22 08:48:04;;;;;;;8.88;2.13;;;6.10;99.90;;;;;;5013239;28;20029;-85
2022/01/22 08:50:35;;;;;;;11.25;2.20;;;6.10;99.90;;;;;;4990679;28;20042;-85
2022/01/22 08:53:11;;;;;;;11.35;2.40;;;6.10;99.90;;;;;;4992920;28;20489;-86
2022/01/22 08:55:47;;;;;;;12.55;2.28;;;6.10;99.90;;;;;;4975980;28;20471;-88
2022/01/22 08:58:13;;;;;;;10.15;2.45;;;6.10;99.90;;;;;;4976603;28;20058;-88
2022/01/22 09:00:48;;;;;;;10.05;2.35;;;6.20;99.90;;;;;;4991682;28;20027;-90
2022/01/22 09:03:18;;;;;;;13.77;2.50;;;6.20;99.90;;;;;;4991481;28;20023;-87
2022/01/22 09:05:46;;;;;;;7.95;2.53;;;6.20;99.90;;;;;;4993333;28;20022;-90
2022/01/22 09:08:20;;;;;;;8.13;2.10;;;6.20;99.90;;;;;;4991723;28;20022;-87
2022/01/22 09:11:04;;;;;;;11.18;2.33;;;6.20;99.90;;;;;;4994924;28;20085;-90
2022/01/22 09:13:32;;;;;;;11.48;2.20;;;6.30;99.90;;;;;;4996233;28;20111;-88
2022/01/22 09:16:00;;;;;;;11.65;2.65;;;6.20;99.90;;;;;;4995522;28;20411;-87
2022/01/22 09:18:26;;;;;;;12.38;2.85;;;6.20;99.90;;;;;;4996919;28;20447;-89
2022/01/22 09:21:02;;;;;;;11.93;2.92;;;6.30;99.90;;;;;;4994858;28;20026;-83
2022/01/22 09:23:36;;;;;;;12.45;2.70;;;6.30;99.90;;;;;;4995526;28;20129;-90
2022/01/22 09:26:15;;;;;;;10.73;2.95;;;6.30;99.90;;;;;;4980452;28;20482;-91
2022/01/22 09:28:46;;;;;;;13.00;2.60;;;6.30;99.90;;;;;;4995029;28;20034;-88
2022/01/22 09:31:17;;;;;;;14.18;3.05;;;6.30;99.90;;;;;;4996292;28;20087;-89
2022/01/22 09:33:45;;;;;;;9.20;2.70;;;6.40;99.90;;;;;;4979401;28;20030;-88
2022/01/22 09:36:32;;;;;;;13.63;2.92;;;6.40;99.90;;;;;;4996765;28;20357;-89
2022/01/22 09:38:59;;;;;;;9.52;2.97;;;6.40;99.90;;;;;;4996463;28;20030;-88
2022/01/22 09:41:34;;;;;;;13.10;2.92;;;6.40;99.90;;;;;;4996194;28;20041;-89
2022/01/22 09:44:02;;;;;;;9.82;3.05;;;6.50;99.90;;;;;;4994664;28;20026;-88
2022/01/22 09:46:31;;;;;;;14.88;3.47;;;6.50;99.90;;;;;;4995105;28;20022;-88
2022/01/22 09:48:59;;;;;;;14.63;3.30;;;6.50;99.90;;;;;;4994004;28;20118;-88
2022/01/22 09:51:27;;;;;;;15.35;3.15;;;6.50;99.90;;;;;;5011885;28;20109;-87
2022/01/22 09:53:53;;;;;;;11.27;3.20;;;6.60;99.90;;;;;;4994992;28;20459;-88
2022/01/22 09:56:21;;;;;;;14.75;3.40;;;6.60;99.90;;;;;;4996404;28;20034;-87
2022/01/22 09:58:48;;;;;;;14.35;3.70;;;6.60;99.90;;;;;;4995801;28;20543;-88
2022/01/22 10:01:37;;;;;;;16.05;3.33;;;6.60;99.90;;;;;;4994546;28;20026;-88
2022/01/22 10:04:14;;;;;;;12.40;3.00;;;6.70;99.90;;;;;;4968452;28;20039;-89
2022/01/22 10:06:54;;;;;;;11.77;3.35;;;6.60;99.90;;;;;;4995062;28;20050;-88
2022/01/22 10:09:53;;;;;;;15.45;3.47;;;6.70;99.90;;;;;;4994799;28;20442;-86
2022/01/22 10:12:16;;;;;;;11.23;3.10;;;6.70;99.90;;;;;;4991499;28;20054;-87
2022/01/22 10:15:05;;;;;;;12.18;3.10;;;6.70;99.90;;;;;;4994727;28;20027;-84
2022/01/22 10:17:47;;;;;;;12.60;3.50;;;6.70;99.90;;;;;;4994166;28;20328;-84
2022/01/22 10:20:25;;;;;;;13.38;3.28;;;6.70;99.90;;;;;;4993989;28;20070;-88
2022/01/22 10:22:53;;;;;;;15.48;3.40;;;6.80;99.90;;;;;;4994632;28;20026;-85
2022/01/22 10:25:25;;;;;;;12.27;3.03;;;6.80;99.90;;;;;;4978045;28;20027;-83
2022/01/22 10:27:56;;;;;;;10.98;3.15;;;6.80;99.90;;;;;;4994075;28;20031;-85
2022/01/22 10:30:22;;;;;;;14.63;3.10;;;6.90;99.90;;;;;;4994841;28;20060;-85
2022/01/22 10:35:23;;;;;;;14.65;3.00;;;6.90;99.90;;;;;;4993908;28;20379;-89
2022/01/22 10:38:03;;;;;;;14.82;2.72;;;6.90;99.90;;;;;;4993942;28;20515;-85
2022/01/22 10:40:38;;;;;;;12.98;3.03;;;6.90;99.90;;;;;;4993752;28;20022;-85
2022/01/22 10:46:04;;;;;;;12.05;2.80;;;7.00;99.90;;;;;;4995202;28;20471;-88
2022/01/22 11:32:07;;;;;;;;;;;;;;;;;;;;;
2022/01/22 11:35:07;;;;;;;17.17;4.65;;;6.90;99.90;;;;;;4895780;29;20055;-87
2022/01/22 11:38:25;;;;;;;;;;;;;;;;;;;;;
2022/01/22 11:41:18;;;;;;;14.27;4.28;;;6.90;99.90;;;;;;4896141;29;20131;-92
2022/01/22 11:44:48;;;;;;;19.38;4.72;;;6.90;99.90;;;;;;4899398;29;20476;-91
2022/01/22 11:47:54;;;;;;;12.93;5.10;;;6.90;99.90;;;;;;4909718;29;20041;-86
2022/01/22 11:50:34;;;;;;;;;;;;;;;;;;;;;
2022/01/22 11:53:32;;;;;;;;;;;;;;;;;;;;;
2022/01/22 11:59:43;;;;;;;15.85;5.22;;;6.90;99.90;;;;;;4914768;29;20065;-88
2022/01/22 12:03:00;;;;;;;12.30;4.82;;;7.00;99.90;;;;;;4912362;29;20123;-89
2022/01/22 12:05:38;;;;;;;13.75;4.93;;;7.00;99.90;;;;;;4870299;29;20040;-89
2022/01/22 12:08:09;;;;;;;17.25;5.50;;;7.00;99.90;;;;;;4914762;29;20028;-88
2022/01/22 12:16:39;;;;;;;15.75;6.03;;;7.00;99.90;;;;;;4912227;29;20067;-87
2022/01/22 12:19:48;;;;;;;19.75;5.85;;;7.00;99.90;;;;;;4898688;29;20437;-86
2022/01/22 12:22:35;;;;;;;14.30;5.47;;;7.00;99.90;;;;;;4913672;29;20112;-90
2022/01/22 12:25:23;;;;;;;17.52;5.65;;;6.90;99.90;;;;;;4912229;29;20028;-90
2022/01/22 12:27:53;;;;;;;18.50;6.53;;;6.90;99.90;;;;;;4899525;29;20100;-90
2022/01/22 12:30:42;;;;;;;18.63;5.95;;;6.90;99.90;;;;;;4897676;29;20065;-91
2022/01/22 12:33:12;;;;;;;17.35;5.55;;;6.90;99.90;;;;;;4912970;29;20383;-90
2022/01/22 12:35:45;;;;;;;22.20;6.72;;;6.90;99.90;;;;;;4897360;29;20050;-90
2022/01/22 12:39:07;;;;;;;15.35;5.60;;;7.00;99.90;;;;;;4912478;29;20032;-87
2022/01/22 12:44:29;;;;;;;16.05;5.00;;;7.00;99.90;;;;;;4898346;29;20096;-84
2022/01/22 12:46:57;;;;;;;14.35;5.03;;;7.00;99.90;;;;;;4915877;29;20033;-84
2022/01/22 12:49:24;;;;;;;19.60;5.45;;;7.10;99.90;;;;;;4915735;29;20028;-84
2022/01/22 12:52:17;;;;;;;14.75;5.05;;;7.20;99.90;;;;;;4899947;29;20122;-83
2022/01/22 12:54:48;;;;;;;13.25;4.53;;;7.20;99.90;;;;;;4897651;29;20049;-83
2022/01/22 12:57:16;;;;;;;18.42;4.25;;;7.20;99.90;;;;;;4900688;29;20025;-83
2022/01/22 13:00:01;;;;;;;14.10;4.85;;;7.30;99.90;;;;;;4915890;29;20032;-83
2022/01/22 13:02:58;;;;;;;14.63;4.32;;;7.30;99.90;;;;;;4900128;29;20458;-84
2022/01/22 13:05:28;;;;;;;12.77;4.18;;;7.30;99.90;;;;;;4900106;29;20426;-84
2022/01/22 13:07:57;;;;;;;16.25;4.57;;;7.30;99.90;;;;;;4901139;29;20032;-84
2022/01/22 13:10:32;;;;;;;16.67;4.28;;;7.30;99.90;;;;;;4899575;29;20108;-83
2022/01/22 13:12:58;;;;;;;13.98;4.25;;;7.30;99.90;;;;;;4900169;29;20036;-83
2022/01/22 13:15:26;;;;;;;10.48;3.50;;;7.20;99.90;;;;;;4915945;29;20376;-83
2022/01/22 13:17:58;;;;;;;15.75;4.40;;;7.20;99.90;;;;;;4900749;29;20096;-84
2022/01/22 13:20:26;;;;;;;16.10;3.60;;;7.20;99.90;;;;;;4899735;29;20037;-83
2022/01/22 13:22:53;;;;;;;15.15;4.38;;;7.20;99.90;;;;;;4914971;29;20032;-84
2022/01/22 13:25:20;;;;;;;15.55;3.45;;;7.20;99.90;;;;;;4900975;29;20028;-84
2022/01/22 13:28:06;;;;;;;11.77;2.97;;;7.20;99.90;;;;;;4902336;29;20036;-83
2022/01/22 13:30:42;;;;;;;11.27;3.78;;;7.20;99.90;;;;;;4903290;29;20051;-83
2022/01/22 13:33:30;;;;;;;18.60;3.70;;;7.10;99.90;;;;;;4902486;29;20048;-83
2022/01/22 13:39:22;;;;;;;14.45;3.13;;;7.10;99.90;;;;;;4914180;29;20080;-86
2022/01/22 13:47:47;;;;;;;14.98;3.30;;;7.10;99.90;;;;;;4900948;29;20043;-86
2022/01/22 13:50:15;;;;;;;12.52;3.67;;;7.10;99.90;;;;;;4914893;29;20036;-84
2022/01/22 13:52:41;;;;;;;13.98;3.30;;;7.00;99.90;;;;;;4914158;29;20047;-82
2022/01/22 13:55:07;;;;;;;11.93;3.42;;;7.00;99.90;;;;;;4914466;29;20037;-83
2022/01/22 13:57:36;;;;;;;14.18;3.50;;;7.00;99.90;;;;;;4913575;29;20037;-83
2022/01/22 14:00:18;;;;;;;15.18;3.40;;;7.00;99.90;;;;;;4900632;29;20039;-83
2022/01/22 14:03:08;;;;;;;14.45;3.67;;;7.00;99.90;;;;;;4900269;29;20035;-83
2022/01/22 14:05:34;;;;;;;12.52;3.28;;;7.00;99.90;;;;;;4914459;29;20025;-83
2022/01/22 14:08:06;;;;;;;12.63;3.38;;;6.90;99.90;;;;;;4914904;29;20036;-82
2022/01/22 14:10:33;;;;;;;10.48;2.88;;;6.90;99.90;;;;;;4898750;29;20059;-83
2022/01/22 14:13:10;;;;;;;11.05;3.30;;;6.90;99.90;;;;;;4900406;29;20036;-82
2022/01/22 14:15:44;;;;;;;14.48;3.08;;;6.90;99.90;;;;;;4912989;29;20028;-82
2022/01/22 14:20:49;;;;;;;14.60;3.38;;;6.90;99.90;;;;;;4899542;29;20092;-83
2022/01/22 14:23:24;;;;;;;14.05;2.95;;;6.90;99.90;;;;;;4898824;29;20485;-83
2022/01/22 14:26:08;;;;;;;12.20;2.83;;;6.80;99.90;;;;;;4914602;29;20028;-83
2022/01/22 14:28:49;;;;;;;14.68;2.50;;;6.80;99.90;;;;;;4913925;29;20393;-82
2022/01/22 14:31:32;;;;;;;12.25;2.95;;;6.80;99.90;;;;;;4899390;29;20120;-83
2022/01/22 14:33:59;;;;;;;13.07;2.95;;;6.80;99.90;;;;;;4913845;29;20053;-82
2022/01/22 14:36:37;;;;;;;12.07;2.47;;;6.80;99.90;;;;;;4914107;29;20029;-82
2022/01/22 14:39:17;;;;;;;16.27;3.03;;;6.80;99.90;;;;;;4899870;29;20047;-81
2022/01/22 14:44:44;;;;;;;12.90;2.67;;;6.80;99.90;;;;;;4899736;29;20479;-82
2022/01/22 14:47:23;;;;;;;12.35;2.85;;;6.80;99.90;;;;;;4913278;29;20048;-83
2022/01/22 14:49:54;;;;;;;12.00;3.22;;;6.70;99.90;;;;;;4899545;29;20106;-84
2022/01/22 14:52:23;;;;;;;12.52;2.80;;;6.70;99.90;;;;;;4897787;29;20505;-82
2022/01/22 14:54:50;;;;;;;10.98;3.17;;;6.70;99.90;;;;;;4913619;29;20031;-80
2022/01/22 14:57:21;;;;;;;9.00;2.83;;;6.70;99.90;;;;;;4897781;29;20028;-81
2022/01/22 14:59:47;;;;;;;11.88;3.42;;;6.70;99.90;;;;;;4898113;29;20036;-81
2022/01/22 15:02:14;;;;;;;12.52;3.30;;;6.70;99.90;;;;;;4899012;29;20052;-83
2022/01/22 15:04:40;;;;;;;9.73;2.60;;;6.70;99.90;;;;;;4897704;29;20385;-83
2022/01/22 15:07:10;;;;;;;12.77;3.40;;;6.70;99.90;;;;;;4913958;29;20040;-82
2022/01/22 15:09:37;;;;;;;7.38;2.33;;;6.70;99.90;;;;;;4897429;29;20025;-84
2022/01/22 15:12:03;;;;;;;9.40;2.50;;;6.70;99.90;;;;;;4897782;29;20096;-83
2022/01/22 15:14:32;;;;;;;10.20;2.60;;;6.70;99.90;;;;;;4897702;29;20037;-83
2022/01/22 15:19:50;;;;;;;8.90;2.45;;;6.60;99.90;;;;;;4900620;29;20080;-84
2022/01/22 15:22:17;;;;;;;11.10;2.28;;;6.60;99.90;;;;;;4898815;29;20103;-83
2022/01/22 15:24:46;;;;;;;8.85;2.50;;;6.60;99.90;;;;;;4913176;29;20353;-84
2022/01/22 15:27:14;;;;;;;12.05;2.53;;;6.60;99.90;;;;;;4899108;29;20374;-84
2022/01/22 15:29:54;;;;;;;10.93;3.00;;;6.60;99.90;;;;;;4898441;29;20021;-84
2022/01/22 15:35:00;;;;;;;10.52;2.42;;;6.50;99.90;;;;;;4898256;29;20044;-84
2022/01/22 15:37:27;;;;;;;11.35;2.10;;;6.50;99.90;;;;;;4912864;29;20109;-84
2022/01/22 15:39:53;;;;;;;10.63;2.00;;;6.40;99.90;;;;;;4897199;29;20039;-84
2022/01/22 15:42:18;;;;;;;8.90;2.20;;;6.40;99.90;;;;;;4897071;29;20032;-83
2022/01/22 15:44:45;;;;;;;10.20;1.95;;;6.40;99.90;;;;;;4898308;29;20017;-84
2022/01/22 15:47:11;;;;;;;10.65;2.10;;;6.40;99.90;;;;;;4898591;29;20056;-86
2022/01/22 15:49:40;;;;;;;9.57;2.10;;;6.40;99.90;;;;;;4912848;29;20067;-85
2022/01/22 15:52:07;;;;;;;12.07;2.20;;;6.40;99.90;;;;;;4912419;29;20060;-87
2022/01/22 15:54:32;;;;;;;12.27;2.17;;;6.30;99.90;;;;;;4912978;29;20036;-86
2022/01/22 15:56:59;;;;;;;9.13;2.13;;;6.30;99.90;;;;;;4913272;29;20131;-83
2022/01/22 15:59:25;;;;;;;9.85;2.00;;;6.30;99.90;;;;;;4898128;29;20040;-86
2022/01/22 16:01:52;;;;;;;11.50;2.70;;;6.30;99.90;;;;;;4913252;29;20049;-88
2022/01/22 16:04:18;;;;;;;9.82;2.38;;;6.30;99.90;;;;;;4913312;29;20036;-87
2022/01/22 16:09:16;;;;;;;13.73;5.03;;;6.20;99.90;;;;;;4898643;29;20041;-89
2022/01/22 16:11:42;;;;;;;9.77;2.53;;;6.20;99.90;;;;;;4898677;29;20028;-84
2022/01/22 16:14:09;;;;;;;12.45;2.33;;;6.20;99.90;;;;;;4899211;29;20075;-85
2022/01/22 16:16:37;;;;;;;10.85;2.65;;;6.20;99.90;;;;;;4904592;29;20072;-86
2022/01/22 16:19:03;;;;;;;13.93;2.40;;;6.20;99.90;;;;;;4918025;29;20465;-86
2022/01/22 16:21:30;;;;;;;10.70;2.50;;;6.20;99.90;;;;;;4911800;29;20047;-84